sensor_id;sensor_type;location;lat;lon;timestamp;pressure;altitude;pressure_sealevel;temperature;humidity
83191;BME280;73087;49.924;22.080;2024-01-10T00:00:37;100684.50;;;-13.44;54.92
83191;BME280;73087;49.924;22.080;2024-01-10T00:01:38;100688.84;;;-13.42;54.64
83191;BME280;73087;49.924;22.080;2024-01-10T00:02:38;100694.81;;;-13.40;55.45
83191;BME280;73087;49.924;22.080;2024-01-10T00:03:39;100692.28;;;-13.40;55.84
83191;BME280;73087;49.924;22.080;2024-01-10T00:04:41;100693.06;;;-13.41;55.37
83191;BME280;73087;49.924;22.080;2024-01-10T00:05:41;100695.59;;;-13.41;54.46
83191;BME280;73087;49.924;22.080;2024-01-10T00:06:42;100696.34;;;-13.43;54.65
83191;BME280;73087;49.924;22.080;2024-01-10T00:07:42;100692.03;;;-13.46;55.60
83191;BME280;73087;49.924;22.080;2024-01-10T00:08:43;100696.19;;;-13.48;55.01
83191;BME280;73087;49.924;22.080;2024-01-10T00:09:43;100697.94;;;-13.45;54.63
83191;BME280;73087;49.924;22.080;2024-01-10T00:10:44;100697.22;;;-13.43;55.13
83191;BME280;73087;49.924;22.080;2024-01-10T00:11:45;100700.66;;;-13.41;54.80
83191;BME280;73087;49.924;22.080;2024-01-10T00:12:45;100700.66;;;-13.41;55.13
83191;BME280;73087;49.924;22.080;2024-01-10T00:13:46;100700.66;;;-13.41;55.83
83191;BME280;73087;49.924;22.080;2024-01-10T00:14:46;100699.03;;;-13.39;55.95
83191;BME280;73087;49.924;22.080;2024-01-10T00:15:47;100702.50;;;-13.37;55.33
83191;BME280;73087;49.924;22.080;2024-01-10T00:16:48;100699.28;;;-13.33;55.64
83191;BME280;73087;49.924;22.080;2024-01-10T00:17:48;100697.66;;;-13.31;55.48
83191;BME280;73087;49.924;22.080;2024-01-10T00:18:49;100693.50;;;-13.31;55.24
83191;BME280;73087;49.924;22.080;2024-01-10T00:19:51;100700.38;;;-13.27;56.17
83191;BME280;73087;49.924;22.080;2024-01-10T00:20:51;100706.28;;;-13.26;54.91
83191;BME280;73087;49.924;22.080;2024-01-10T00:21:52;100694.56;;;-13.24;54.94
83191;BME280;73087;49.924;22.080;2024-01-10T00:22:53;100698.84;;;-13.23;56.06
83191;BME280;73087;49.924;22.080;2024-01-10T00:23:53;100702.94;;;-13.25;55.34
83191;BME280;73087;49.924;22.080;2024-01-10T00:24:54;100696.19;;;-13.26;55.97
83191;BME280;73087;49.924;22.080;2024-01-10T00:25:54;100694.34;;;-13.30;54.87
83191;BME280;73087;49.924;22.080;2024-01-10T00:26:55;100697.78;;;-13.28;55.11
83191;BME280;73087;49.924;22.080;2024-01-10T00:27:55;100695.94;;;-13.32;55.90
83191;BME280;73087;49.924;22.080;2024-01-10T00:28:56;100689.06;;;-13.36;55.15
83191;BME280;73087;49.924;22.080;2024-01-10T00:29:56;100692.50;;;-13.34;55.83
83191;BME280;73087;49.924;22.080;2024-01-10T00:30:57;100690.78;;;-13.35;54.53
83191;BME280;73087;49.924;22.080;2024-01-10T00:31:57;100688.94;;;-13.39;54.73
83191;BME280;73087;49.924;22.080;2024-01-10T00:32:58;100682.06;;;-13.43;55.51
83191;BME280;73087;49.924;22.080;2024-01-10T00:33:58;100677.00;;;-13.43;55.45
83191;BME280;73087;49.924;22.080;2024-01-10T00:35:00;100688.84;;;-13.42;56.08
83191;BME280;73087;49.924;22.080;2024-01-10T00:36:01;100678.50;;;-13.48;55.52
83191;BME280;73087;49.924;22.080;2024-01-10T00:37:02;100682.63;;;-13.50;54.79
83191;BME280;73087;49.924;22.080;2024-01-10T00:38:02;100665.84;;;-13.70;54.58
83191;BME280;73087;49.924;22.080;2024-01-10T00:39:03;100691.31;;;-13.64;54.40
83191;BME280;73087;49.924;22.080;2024-01-10T00:40:05;100691.19;;;-13.67;54.79
83191;BME280;73087;49.924;22.080;2024-01-10T00:41:06;100702.91;;;-13.69;54.77
83191;BME280;73087;49.924;22.080;2024-01-10T00:42:07;100694.53;;;-13.68;54.76
83191;BME280;73087;49.924;22.080;2024-01-10T00:43:07;100698.09;;;-13.63;55.52
83191;BME280;73087;49.924;22.080;2024-01-10T00:44:08;100693.28;;;-13.57;55.21
83191;BME280;73087;49.924;22.080;2024-01-10T00:45:09;100693.53;;;-13.51;55.34
83191;BME280;73087;49.924;22.080;2024-01-10T00:46:09;100690.31;;;-13.47;55.49
83191;BME280;73087;49.924;22.080;2024-01-10T00:47:10;100690.44;;;-13.44;56.25
83191;BME280;73087;49.924;22.080;2024-01-10T00:48:11;100685.38;;;-13.44;55.31
83191;BME280;73087;49.924;22.080;2024-01-10T00:49:12;100683.66;;;-13.45;55.36
83191;BME280;73087;49.924;22.080;2024-01-10T00:50:14;100688.72;;;-13.45;55.42
83191;BME280;73087;49.924;22.080;2024-01-10T00:51:14;100685.28;;;-13.47;55.12
83191;BME280;73087;49.924;22.080;2024-01-10T00:52:15;100686.06;;;-13.48;55.06
83191;BME280;73087;49.924;22.080;2024-01-10T00:53:15;100680.13;;;-13.50;54.46
83191;BME280;73087;49.924;22.080;2024-01-10T00:54:16;100683.31;;;-13.54;55.34
83191;BME280;73087;49.924;22.080;2024-01-10T00:55:17;100683.16;;;-13.57;54.81
83191;BME280;73087;49.924;22.080;2024-01-10T00:56:18;100681.44;;;-13.58;55.74
83191;BME280;73087;49.924;22.080;2024-01-10T00:57:18;100674.94;;;-13.53;55.47
83191;BME280;73087;49.924;22.080;2024-01-10T00:58:19;100680.13;;;-13.50;55.20
83191;BME280;73087;49.924;22.080;2024-01-10T00:59:19;100666.56;;;-13.52;54.77
83191;BME280;73087;49.924;22.080;2024-01-10T01:00:20;100675.28;;;-13.44;55.10
83191;BME280;73087;49.924;22.080;2024-01-10T01:01:21;100676.22;;;-13.42;55.35
83191;BME280;73087;49.924;22.080;2024-01-10T01:02:21;100682.19;;;-13.40;54.89
83191;BME280;73087;49.924;22.080;2024-01-10T01:03:22;100682.28;;;-13.37;56.10
83191;BME280;73087;49.924;22.080;2024-01-10T01:04:22;100680.69;;;-13.35;55.25
83191;BME280;73087;49.924;22.080;2024-01-10T01:05:24;100689.06;;;-13.36;54.88
83191;BME280;73087;49.924;22.080;2024-01-10T01:06:25;100683.91;;;-13.39;54.90
83191;BME280;73087;49.924;22.080;2024-01-10T01:07:26;100686.22;;;-13.43;55.08
83191;BME280;73087;49.924;22.080;2024-01-10T01:08:27;100691.94;;;-13.49;55.63
83191;BME280;73087;49.924;22.080;2024-01-10T01:09:27;100686.66;;;-13.55;54.77
83191;BME280;73087;49.924;22.080;2024-01-10T01:10:28;100684.66;;;-13.62;54.79
83191;BME280;73087;49.924;22.080;2024-01-10T01:11:28;100686.16;;;-13.67;54.94
83191;BME280;73087;49.924;22.080;2024-01-10T01:12:29;100683.28;;;-13.76;54.74
83191;BME280;73087;49.924;22.080;2024-01-10T01:13:29;100682.25;;;-13.81;54.93
83191;BME280;73087;49.924;22.080;2024-01-10T01:14:30;100686.25;;;-13.86;55.54
83191;BME280;73087;49.924;22.080;2024-01-10T01:15:31;100681.72;;;-13.93;55.39
83191;BME280;73087;49.924;22.080;2024-01-10T01:16:31;100683.44;;;-13.92;54.98
83191;BME280;73087;49.924;22.080;2024-01-10T01:17:32;100675.84;;;-13.93;55.20
83191;BME280;73087;49.924;22.080;2024-01-10T01:18:32;100682.38;;;-13.98;55.60
83191;BME280;73087;49.924;22.080;2024-01-10T01:19:33;100678.03;;;-14.01;55.02
83191;BME280;73087;49.924;22.080;2024-01-10T01:20:35;100681.38;;;-14.02;55.70
83191;BME280;73087;49.924;22.080;2024-01-10T01:21:35;100678.84;;;-14.02;55.84
83191;BME280;73087;49.924;22.080;2024-01-10T01:22:36;100671.28;;;-14.02;55.96
83191;BME280;73087;49.924;22.080;2024-01-10T01:23:36;100678.41;;;-13.92;56.33
83191;BME280;73087;49.924;22.080;2024-01-10T01:24:37;100677.06;;;-13.84;56.37
83191;BME280;73087;49.924;22.080;2024-01-10T01:25:37;100680.50;;;-13.82;55.92
83191;BME280;73087;49.924;22.080;2024-01-10T01:26:38;100676.31;;;-13.81;55.98
83191;BME280;73087;49.924;22.080;2024-01-10T01:27:38;100673.88;;;-13.80;56.31
83191;BME280;73087;49.924;22.080;2024-01-10T01:28:39;100655.78;;;-13.90;56.32
83191;BME280;73087;49.924;22.080;2024-01-10T01:29:39;100668.81;;;-13.80;56.27
83191;BME280;73087;49.924;22.080;2024-01-10T01:30:40;100674.09;;;-13.74;56.52
83191;BME280;73087;49.924;22.080;2024-01-10T01:31:40;100670.78;;;-13.73;55.57
83191;BME280;73087;49.924;22.080;2024-01-10T01:32:41;100665.59;;;-13.76;56.72
83191;BME280;73087;49.924;22.080;2024-01-10T01:33:42;100667.09;;;-13.81;56.52
83191;BME280;73087;49.924;22.080;2024-01-10T01:34:42;100661.81;;;-13.87;55.18
83191;BME280;73087;49.924;22.080;2024-01-10T01:35:44;100664.88;;;-13.94;55.01
83191;BME280;73087;49.924;22.080;2024-01-10T01:36:45;100664.63;;;-14.00;55.73
83191;BME280;73087;49.924;22.080;2024-01-10T01:37:45;100662.78;;;-14.04;55.54
83191;BME280;73087;49.924;22.080;2024-01-10T01:38:46;100663.50;;;-14.06;55.84
83191;BME280;73087;49.924;22.080;2024-01-10T01:39:46;100666.00;;;-14.08;55.77
83191;BME280;73087;49.924;22.080;2024-01-10T01:40:47;100657.63;;;-14.07;55.97
83191;BME280;73087;49.924;22.080;2024-01-10T01:41:47;100664.50;;;-14.03;56.16
83191;BME280;73087;49.924;22.080;2024-01-10T01:42:48;100660.38;;;-14.01;55.74
83191;BME280;73087;49.924;22.080;2024-01-10T01:43:48;100663.94;;;-13.96;55.83
83191;BME280;73087;49.924;22.080;2024-01-10T01:44:49;100658.34;;;-13.89;56.28
83191;BME280;73087;49.924;22.080;2024-01-10T01:45:52;100658.59;;;-13.83;56.42
83191;BME280;73087;49.924;22.080;2024-01-10T01:46:53;100657.13;;;-13.78;56.44
83191;BME280;73087;49.924;22.080;2024-01-10T01:47:53;100657.25;;;-13.75;55.71
83191;BME280;73087;49.924;22.080;2024-01-10T01:48:54;100647.88;;;-13.77;56.74
83191;BME280;73087;49.924;22.080;2024-01-10T01:49:55;100630.91;;;-13.81;56.58
83191;BME280;73087;49.924;22.080;2024-01-10T01:50:59;100659.19;;;-13.68;55.68
83191;BME280;73087;49.924;22.080;2024-01-10T01:52:00;100657.47;;;-13.69;56.62
83191;BME280;73087;49.924;22.080;2024-01-10T01:53:02;100640.72;;;-13.67;55.42
83191;BME280;73087;49.924;22.080;2024-01-10T01:54:06;100645.66;;;-13.70;55.50
83191;BME280;73087;49.924;22.080;2024-01-10T01:55:08;100647.38;;;-13.69;56.26
83191;BME280;73087;49.924;22.080;2024-01-10T01:56:09;100652.31;;;-13.72;56.31
83191;BME280;73087;49.924;22.080;2024-01-10T01:57:10;100648.97;;;-13.71;56.20
83191;BME280;73087;49.924;22.080;2024-01-10T01:58:11;100647.25;;;-13.72;55.85
83191;BME280;73087;49.924;22.080;2024-01-10T01:59:12;100606.03;;;-13.93;55.25
83191;BME280;73087;49.924;22.080;2024-01-10T02:00:13;100637.06;;;-13.75;55.79
83191;BME280;73087;49.924;22.080;2024-01-10T02:01:14;100636.28;;;-13.72;55.79
83191;BME280;73087;49.924;22.080;2024-01-10T02:02:16;100633.84;;;-13.71;56.24
83191;BME280;73087;49.924;22.080;2024-01-10T02:03:17;100635.56;;;-13.70;55.63
83191;BME280;73087;49.924;22.080;2024-01-10T02:04:18;100628.78;;;-13.71;55.78
83191;BME280;73087;49.924;22.080;2024-01-10T02:05:20;100637.28;;;-13.69;56.69
83191;BME280;73087;49.924;22.080;2024-01-10T02:06:22;100639.00;;;-13.68;55.65
83191;BME280;73087;49.924;22.080;2024-01-10T02:07:22;100644.16;;;-13.65;56.10
83191;BME280;73087;49.924;22.080;2024-01-10T02:08:23;100628.69;;;-13.74;56.63
83191;BME280;73087;49.924;22.080;2024-01-10T02:09:23;100642.56;;;-13.63;55.47
83191;BME280;73087;49.924;22.080;2024-01-10T02:10:24;100651.06;;;-13.61;56.07
83191;BME280;73087;49.924;22.080;2024-01-10T02:11:25;100647.72;;;-13.60;56.20
83191;BME280;73087;49.924;22.080;2024-01-10T02:12:26;100639.81;;;-13.69;56.02
83191;BME280;73087;49.924;22.080;2024-01-10T02:13:27;100650.81;;;-13.67;55.64
83191;BME280;73087;49.924;22.080;2024-01-10T02:14:28;100657.34;;;-13.72;55.61
83191;BME280;73087;49.924;22.080;2024-01-10T02:15:29;100655.50;;;-13.76;55.33
83191;BME280;73087;49.924;22.080;2024-01-10T02:16:29;100657.13;;;-13.78;55.33
83191;BME280;73087;49.924;22.080;2024-01-10T02:17:30;100648.56;;;-13.81;55.61
83191;BME280;73087;49.924;22.080;2024-01-10T02:18:31;100645.19;;;-13.82;55.83
83191;BME280;73087;49.924;22.080;2024-01-10T02:19:31;100658.59;;;-13.83;56.24
83191;BME280;73087;49.924;22.080;2024-01-10T02:20:32;100630.47;;;-13.92;56.02
83191;BME280;73087;49.924;22.080;2024-01-10T02:21:34;100653.69;;;-13.80;56.08
83191;BME280;73087;49.924;22.080;2024-01-10T02:22:35;100650.22;;;-13.82;55.39
83191;BME280;73087;49.924;22.080;2024-01-10T02:23:35;100658.72;;;-13.80;56.09
83191;BME280;73087;49.924;22.080;2024-01-10T02:24:36;100652.06;;;-13.78;55.90
83191;BME280;73087;49.924;22.080;2024-01-10T02:25:38;100652.06;;;-13.78;56.49
83191;BME280;73087;49.924;22.080;2024-01-10T02:26:39;100653.69;;;-13.80;56.30
83191;BME280;73087;49.924;22.080;2024-01-10T02:27:40;100666.19;;;-13.83;56.68
83191;BME280;73087;49.924;22.080;2024-01-10T02:28:41;100659.09;;;-13.91;55.74
83191;BME280;73087;49.924;22.080;2024-01-10T02:29:42;100654.91;;;-13.91;56.03
83191;BME280;73087;49.924;22.080;2024-01-10T02:30:42;100649.00;;;-13.91;55.54
83191;BME280;73087;49.924;22.080;2024-01-10T02:31:43;100644.69;;;-13.94;55.44
83191;BME280;73087;49.924;22.080;2024-01-10T02:32:44;100641.25;;;-13.96;56.40
83191;BME280;73087;49.924;22.080;2024-01-10T02:33:45;100642.84;;;-13.98;56.51
83191;BME280;73087;49.924;22.080;2024-01-10T02:34:45;100642.84;;;-13.98;55.63
83191;BME280;73087;49.924;22.080;2024-01-10T02:35:46;100641.13;;;-13.99;55.57
83191;BME280;73087;49.924;22.080;2024-01-10T02:36:46;100642.00;;;-13.98;55.95
83191;BME280;73087;49.924;22.080;2024-01-10T02:37:47;100632.63;;;-14.01;56.29
83191;BME280;73087;49.924;22.080;2024-01-10T02:38:48;100639.09;;;-14.07;55.81
83191;BME280;73087;49.924;22.080;2024-01-10T02:39:48;100639.66;;;-14.14;55.57
83191;BME280;73087;49.924;22.080;2024-01-10T02:40:50;100647.81;;;-14.21;55.95
83191;BME280;73087;49.924;22.080;2024-01-10T02:41:51;100639.25;;;-14.25;55.08
83191;BME280;73087;49.924;22.080;2024-01-10T02:42:51;100635.13;;;-14.23;55.80
83191;BME280;73087;49.924;22.080;2024-01-10T02:43:52;100638.72;;;-14.18;56.09
83191;BME280;73087;49.924;22.080;2024-01-10T02:44:52;100633.78;;;-14.15;55.86
83191;BME280;73087;49.924;22.080;2024-01-10T02:45:53;100633.88;;;-14.12;56.82
83191;BME280;73087;49.924;22.080;2024-01-10T02:46:53;100640.88;;;-14.05;56.72
83191;BME280;73087;49.924;22.080;2024-01-10T02:47:54;100638.47;;;-14.02;56.50
83191;BME280;73087;49.924;22.080;2024-01-10T02:48:55;100637.56;;;-14.04;56.56
83191;BME280;73087;49.924;22.080;2024-01-10T02:49:55;100641.00;;;-14.02;56.36
83191;BME280;73087;49.924;22.080;2024-01-10T02:50:56;100639.16;;;-14.06;55.96
83191;BME280;73087;49.924;22.080;2024-01-10T02:51:56;100639.16;;;-14.06;55.95
83191;BME280;73087;49.924;22.080;2024-01-10T02:52:57;100642.59;;;-14.04;56.40
83191;BME280;73087;49.924;22.080;2024-01-10T02:53:57;100642.72;;;-14.01;56.68
83191;BME280;73087;49.924;22.080;2024-01-10T02:54:58;100650.50;;;-13.96;55.51
83191;BME280;73087;49.924;22.080;2024-01-10T02:56:00;100652.34;;;-13.92;56.28
83191;BME280;73087;49.924;22.080;2024-01-10T02:57:01;100649.94;;;-13.89;57.11
83191;BME280;73087;49.924;22.080;2024-01-10T02:58:01;100649.97;;;-13.88;56.04
83191;BME280;73087;49.924;22.080;2024-01-10T02:59:02;100646.69;;;-13.87;55.54
83191;BME280;73087;49.924;22.080;2024-01-10T03:00:03;100638.16;;;-13.89;56.35
83191;BME280;73087;49.924;22.080;2024-01-10T03:01:04;100644.69;;;-13.94;56.21
83191;BME280;73087;49.924;22.080;2024-01-10T03:02:04;100636.19;;;-13.96;56.50
83191;BME280;73087;49.924;22.080;2024-01-10T03:03:05;100629.31;;;-14.00;56.11
83191;BME280;73087;49.924;22.080;2024-01-10T03:04:05;100632.75;;;-13.98;56.05
83191;BME280;73087;49.924;22.080;2024-01-10T03:05:06;100629.56;;;-13.94;56.12
83191;BME280;73087;49.924;22.080;2024-01-10T03:06:07;100629.56;;;-13.94;56.14
83191;BME280;73087;49.924;22.080;2024-01-10T03:07:07;100627.84;;;-13.95;57.00
83191;BME280;73087;49.924;22.080;2024-01-10T03:08:08;100627.84;;;-13.95;55.46
83191;BME280;73087;49.924;22.080;2024-01-10T03:09:08;100634.47;;;-13.97;56.40
83191;BME280;73087;49.924;22.080;2024-01-10T03:10:09;100636.09;;;-13.99;56.35
83191;BME280;73087;49.924;22.080;2024-01-10T03:11:11;100641.00;;;-14.02;55.86
83191;BME280;73087;49.924;22.080;2024-01-10T03:12:12;100626.44;;;-14.09;56.67
83191;BME280;73087;49.924;22.080;2024-01-10T03:13:12;100630.81;;;-14.05;55.79
83191;BME280;73087;49.924;22.080;2024-01-10T03:14:13;100627.34;;;-14.07;55.94
83191;BME280;73087;49.924;22.080;2024-01-10T03:15:14;100629.06;;;-14.06;55.75
83191;BME280;73087;49.924;22.080;2024-01-10T03:16:14;100629.19;;;-14.03;56.17
83191;BME280;73087;49.924;22.080;2024-01-10T03:17:15;100627.59;;;-14.01;56.62
83191;BME280;73087;49.924;22.080;2024-01-10T03:18:15;100622.66;;;-13.98;55.74
83191;BME280;73087;49.924;22.080;2024-01-10T03:19:16;100627.94;;;-13.92;56.13
83191;BME280;73087;49.924;22.080;2024-01-10T03:20:16;100631.38;;;-13.90;55.61
83191;BME280;73087;49.924;22.080;2024-01-10T03:21:17;100623.81;;;-13.90;55.71
83191;BME280;73087;49.924;22.080;2024-01-10T03:22:18;100627.03;;;-13.94;56.20
83191;BME280;73087;49.924;22.080;2024-01-10T03:23:18;100626.91;;;-13.97;56.13
83191;BME280;73087;49.924;22.080;2024-01-10T03:24:19;100629.31;;;-14.00;55.46
83191;BME280;73087;49.924;22.080;2024-01-10T03:25:19;100632.63;;;-14.01;56.07
83191;BME280;73087;49.924;22.080;2024-01-10T03:26:21;100622.31;;;-14.07;55.90
83191;BME280;73087;49.924;22.080;2024-01-10T03:27:22;100612.09;;;-14.10;56.49
83191;BME280;73087;49.924;22.080;2024-01-10T03:28:22;100615.53;;;-14.08;56.55
83191;BME280;73087;49.924;22.080;2024-01-10T03:29:23;100617.28;;;-14.07;56.40
83191;BME280;73087;49.924;22.080;2024-01-10T03:30:24;100619.00;;;-14.06;56.15
83191;BME280;73087;49.924;22.080;2024-01-10T03:31:24;100619.09;;;-14.03;55.83
83191;BME280;73087;49.924;22.080;2024-01-10T03:32:25;100620.81;;;-14.02;55.91
83191;BME280;73087;49.924;22.080;2024-01-10T03:33:25;100619.22;;;-14.00;55.61
83191;BME280;73087;49.924;22.080;2024-01-10T03:34:26;100613.38;;;-13.99;56.50
83191;BME280;73087;49.924;22.080;2024-01-10T03:35:26;100614.19;;;-14.00;56.54
83191;BME280;73087;49.924;22.080;2024-01-10T03:36:27;100610.84;;;-13.99;55.82
83191;BME280;73087;49.924;22.080;2024-01-10T03:37:27;100610.84;;;-13.99;56.31
83191;BME280;73087;49.924;22.080;2024-01-10T03:38:28;100614.19;;;-14.00;56.34
83191;BME280;73087;49.924;22.080;2024-01-10T03:39:28;100615.91;;;-13.99;55.84
83191;BME280;73087;49.924;22.080;2024-01-10T03:40:29;100614.19;;;-14.00;55.81
83191;BME280;73087;49.924;22.080;2024-01-10T03:41:31;100612.56;;;-13.98;55.45
83191;BME280;73087;49.924;22.080;2024-01-10T03:42:31;100615.91;;;-13.99;55.64
83191;BME280;73087;49.924;22.080;2024-01-10T03:43:32;100606.56;;;-14.01;55.78
83191;BME280;73087;49.924;22.080;2024-01-10T03:44:32;100600.53;;;-14.05;55.83
83191;BME280;73087;49.924;22.080;2024-01-10T03:45:33;100608.78;;;-14.09;55.19
83191;BME280;73087;49.924;22.080;2024-01-10T03:46:34;100619.59;;;-14.11;55.56
83191;BME280;73087;49.924;22.080;2024-01-10T03:47:34;100610.25;;;-14.14;56.09
83191;BME280;73087;49.924;22.080;2024-01-10T03:48:35;100617.78;;;-14.15;55.71
83191;BME280;73087;49.924;22.080;2024-01-10T03:49:35;100606.84;;;-14.16;55.26
83191;BME280;73087;49.924;22.080;2024-01-10T03:50:36;100610.19;;;-14.17;55.96
83191;BME280;73087;49.924;22.080;2024-01-10T03:51:36;100611.91;;;-14.16;56.36
83191;BME280;73087;49.924;22.080;2024-01-10T03:52:37;100613.63;;;-14.15;56.11
83191;BME280;73087;49.924;22.080;2024-01-10T03:53:37;100615.31;;;-14.14;56.69
83191;BME280;73087;49.924;22.080;2024-01-10T03:54:38;100601.91;;;-14.13;56.47
83191;BME280;73087;49.924;22.080;2024-01-10T03:55:39;100617.03;;;-14.13;56.40
83191;BME280;73087;49.924;22.080;2024-01-10T03:56:40;100610.25;;;-14.14;56.16
83191;BME280;73087;49.924;22.080;2024-01-10T03:57:41;100610.25;;;-14.14;55.25
83191;BME280;73087;49.924;22.080;2024-01-10T03:58:42;100610.19;;;-14.17;55.45
83191;BME280;73087;49.924;22.080;2024-01-10T03:59:42;100603.25;;;-14.21;55.76
83191;BME280;73087;49.924;22.080;2024-01-10T04:00:43;100604.03;;;-14.23;55.73
83191;BME280;73087;49.924;22.080;2024-01-10T04:01:43;100606.59;;;-14.22;56.65
83191;BME280;73087;49.924;22.080;2024-01-10T04:02:44;100604.13;;;-14.20;56.28
83191;BME280;73087;49.924;22.080;2024-01-10T04:03:44;100605.88;;;-14.19;55.81
83191;BME280;73087;49.924;22.080;2024-01-10T04:04:45;100608.47;;;-14.18;56.72
83191;BME280;73087;49.924;22.080;2024-01-10T04:05:45;100606.94;;;-14.13;55.62
83191;BME280;73087;49.924;22.080;2024-01-10T04:06:46;100603.84;;;-14.06;56.32
83191;BME280;73087;49.924;22.080;2024-01-10T04:07:47;100605.69;;;-14.02;56.58
83191;BME280;73087;49.924;22.080;2024-01-10T04:08:47;100604.09;;;-14.00;56.42
83191;BME280;73087;49.924;22.080;2024-01-10T04:09:48;100609.25;;;-13.97;56.80
83191;BME280;73087;49.924;22.080;2024-01-10T04:10:48;100602.59;;;-13.95;56.38
83191;BME280;73087;49.924;22.080;2024-01-10T04:11:50;100604.22;;;-13.97;55.39
83191;BME280;73087;49.924;22.080;2024-01-10T04:12:51;100602.38;;;-14.01;56.79
83191;BME280;73087;49.924;22.080;2024-01-10T04:13:51;100603.97;;;-14.03;56.64
83191;BME280;73087;49.924;22.080;2024-01-10T04:14:52;100607.31;;;-14.04;55.90
83191;BME280;73087;49.924;22.080;2024-01-10T04:15:52;100596.84;;;-14.13;56.37
83191;BME280;73087;49.924;22.080;2024-01-10T04:16:53;100591.72;;;-14.16;56.28
83191;BME280;73087;49.924;22.080;2024-01-10T04:17:54;100603.13;;;-14.03;56.11
83191;BME280;73087;49.924;22.080;2024-01-10T04:18:54;100598.81;;;-14.06;56.08
83191;BME280;73087;49.924;22.080;2024-01-10T04:19:55;100602.03;;;-14.10;55.62
83191;BME280;73087;49.924;22.080;2024-01-10T04:20:56;100605.22;;;-14.14;56.04
83191;BME280;73087;49.924;22.080;2024-01-10T04:21:56;100607.06;;;-14.10;56.36
83191;BME280;73087;49.924;22.080;2024-01-10T04:22:57;100600.53;;;-14.05;55.87
83191;BME280;73087;49.924;22.080;2024-01-10T04:23:57;100600.66;;;-14.02;56.78
83191;BME280;73087;49.924;22.080;2024-01-10T04:24:59;100602.38;;;-14.01;56.29
83191;BME280;73087;49.924;22.080;2024-01-10T04:26:00;100594.00;;;-14.00;55.52
83191;BME280;73087;49.924;22.080;2024-01-10T04:27:02;100598.13;;;-14.02;56.49
83191;BME280;73087;49.924;22.080;2024-01-10T04:28:03;100604.09;;;-14.00;55.29
83191;BME280;73087;49.924;22.080;2024-01-10T04:29:04;100602.50;;;-13.98;55.75
83191;BME280;73087;49.924;22.080;2024-01-10T04:30:05;100595.72;;;-13.99;56.23
83191;BME280;73087;49.924;22.080;2024-01-10T04:31:06;100593.88;;;-14.03;55.88
83191;BME280;73087;49.924;22.080;2024-01-10T04:32:07;100593.78;;;-14.06;55.91
83191;BME280;73087;49.924;22.080;2024-01-10T04:33:07;100580.13;;;-14.11;56.19
83191;BME280;73087;49.924;22.080;2024-01-10T04:34:08;100597.09;;;-14.07;56.10
83191;BME280;73087;49.924;22.080;2024-01-10T04:35:08;100598.94;;;-14.03;56.63
83191;BME280;73087;49.924;22.080;2024-01-10T04:36:09;100597.22;;;-14.04;55.81
83191;BME280;73087;49.924;22.080;2024-01-10T04:37:09;100580.00;;;-14.14;56.38
83191;BME280;73087;49.924;22.080;2024-01-10T04:38:10;100562.81;;;-14.24;56.22
83191;BME280;73087;49.924;22.080;2024-01-10T04:39:11;100584.41;;;-14.08;56.39
83191;BME280;73087;49.924;22.080;2024-01-10T04:40:11;100593.53;;;-14.12;55.82
83191;BME280;73087;49.924;22.080;2024-01-10T04:41:12;100596.84;;;-14.13;56.33
83191;BME280;73087;49.924;22.080;2024-01-10T04:42:14;100593.44;;;-14.15;56.76
83191;BME280;73087;49.924;22.080;2024-01-10T04:43:15;100589.13;;;-14.17;55.82
83191;BME280;73087;49.924;22.080;2024-01-10T04:44:15;100595.06;;;-14.17;56.61
83191;BME280;73087;49.924;22.080;2024-01-10T04:45:16;100595.13;;;-14.14;56.38
83191;BME280;73087;49.924;22.080;2024-01-10T04:46:16;100596.78;;;-14.16;56.77
83191;BME280;73087;49.924;22.080;2024-01-10T04:47:17;100598.50;;;-14.15;56.50
83191;BME280;73087;49.924;22.080;2024-01-10T04:48:18;100593.53;;;-14.12;55.88
83191;BME280;73087;49.924;22.080;2024-01-10T04:49:18;100589.44;;;-14.08;56.65
83191;BME280;73087;49.924;22.080;2024-01-10T04:50:19;100588.59;;;-14.09;56.00
83191;BME280;73087;49.924;22.080;2024-01-10T04:51:19;100600.28;;;-14.11;56.21
83191;BME280;73087;49.924;22.080;2024-01-10T04:52:20;100596.84;;;-14.13;55.77
83191;BME280;73087;49.924;22.080;2024-01-10T04:53:20;100598.69;;;-14.09;56.33
83191;BME280;73087;49.924;22.080;2024-01-10T04:54:21;100598.00;;;-14.05;55.75
83191;BME280;73087;49.924;22.080;2024-01-10T04:55:22;100598.94;;;-14.03;55.58
83191;BME280;73087;49.924;22.080;2024-01-10T04:56:22;100604.09;;;-14.00;56.75
83191;BME280;73087;49.924;22.080;2024-01-10T04:57:24;100594.00;;;-14.00;56.10
83191;BME280;73087;49.924;22.080;2024-01-10T04:58:25;100595.59;;;-14.02;56.18
83191;BME280;73087;49.924;22.080;2024-01-10T04:59:25;100598.81;;;-14.06;55.34
83191;BME280;73087;49.924;22.080;2024-01-10T05:00:28;100606.84;;;-14.16;55.97
83191;BME280;73087;49.924;22.080;2024-01-10T05:01:28;100608.19;;;-14.24;55.66
83191;BME280;73087;49.924;22.080;2024-01-10T05:02:29;100604.75;;;-14.26;56.23
83191;BME280;73087;49.924;22.080;2024-01-10T05:03:29;100600.50;;;-14.27;56.17
83191;BME280;73087;49.924;22.080;2024-01-10T05:04:30;100606.34;;;-14.28;56.60
83191;BME280;73087;49.924;22.080;2024-01-10T05:05:30;100606.22;;;-14.31;56.04
83191;BME280;73087;49.924;22.080;2024-01-10T05:06:31;100612.88;;;-14.33;55.29
83191;BME280;73087;49.924;22.080;2024-01-10T05:07:32;100609.53;;;-14.32;55.45
83191;BME280;73087;49.924;22.080;2024-01-10T05:08:32;100608.06;;;-14.27;56.25
83191;BME280;73087;49.924;22.080;2024-01-10T05:09:33;100603.16;;;-14.24;56.86